Terminal Aerodrome Forecast
Issued by NWS

Home | Current Version | Previous Version | Text Only | Print | Product List | Glossary Off
Versions: 1 2 3 4 5 6 7 8 9 10 11 12 13 14 15 16 17 18 19 20 21 22 23 24 25 26 27 28 29 30 31 32 33 34

000
FTUS43 KGRB 302125 AAA
TAFATW
TAF AMD
KATW 302125Z 3021/0118 05015G25KT P6SM OVC007
     FM010300 04020G29KT 4SM -RA OVC005
     FM010600 06014G24KT 5SM -RA OVC005
     FM011100 17007KT 5SM -SHRA OVC006
     FM011700 19009G14KT P6SM -SHRA OVC011=

USA.gov is the U.S. government's official web portal to all federal, state and local government web resources and services.